M I D A S
Marine Information and Data Acquisition System
Tripno 1608 of the Zeeleeuw from 2008-11-07 07:51:46 to 2008-11-07 12:14:58
Back to CruiseResearch ActivitiesStationsMapUnderway DataData graphs

EquipmentUnitsComments
TimeDGPSUTC
LatitudeDGPSDM.mWGS84
LongitudeDGPSDM.mWGS84
SpeedMeteo Stationm/sRelative wind speed
DirectionMeteo StationdegRelative wind direction
TemperatureMeteo Stationdeg CelciusAir temperature
PressureMeteo StationPaAtmospheric pressure
HumidityMeteo Station%Relative humidity
Missing or incorrect values are displayed as -999
Metereological data collected by the RV Zeeleeuw from 2008-11-07 07:19:33 to 2008-11-07 12:28:13
Time Latitude Longitude Speed Direction Temperature Pressure Humidity
2008-11-07 07:20 51°13.623 2°56.049 -999 -999 -999 -999 -999
2008-11-07 07:21 51°13.623 2°56.048 -999 -999 -999 -999 -999
2008-11-07 07:22 51°13.624 2°56.049 -999 -999 -999 -999 -999
2008-11-07 07:23 51°13.624 2°56.048 -999 -999 -999 -999 -999
2008-11-07 07:24 51°13.624 2°56.049 -999 -999 -999 -999 -999
2008-11-07 07:25 51°13.625 2°56.048 -999 -999 -999 -999 -999
2008-11-07 07:26 51°13.625 2°56.048 -999 -999 -999 -999 -999
2008-11-07 07:27 51°13.624 2°56.047 -999 -999 -999 -999 -999
2008-11-07 07:28 51°13.624 2°56.048 -999 -999 -999 -999 -999
2008-11-07 07:29 51°13.625 2°56.049 -999 -999 -999 -999 -999
2008-11-07 07:30 51°13.625 2°56.048 -999 -999 -999 -999 -999
2008-11-07 07:31 51°13.624 2°56.048 -999 -999 -999 -999 -999
2008-11-07 07:32 51°13.624 2°56.049 -999 -999 -999 -999 -999
2008-11-07 07:33 51°13.624 2°56.048 -999 -999 -999 -999 -999
2008-11-07 07:34 51°13.624 2°56.049 -999 -999 -999 -999 -999
2008-11-07 07:35 51°13.623 2°56.05 -999 -999 -999 -999 -999
2008-11-07 07:36 51°13.623 2°56.05 -999 -999 -999 -999 -999
2008-11-07 07:37 51°13.623 2°56.05 -999 -999 -999 -999 -999
2008-11-07 07:38 51°13.623 2°56.049 -999 -999 -999 -999 -999
2008-11-07 07:39 51°13.624 2°56.049 -999 -999 -999 -999 -999
2008-11-07 07:40 51°13.623 2°56.05 -999 -999 -999 -999 -999
2008-11-07 07:41 51°13.623 2°56.049 -999 -999 -999 -999 -999
2008-11-07 07:42 51°13.623 2°56.05 -999 -999 -999 -999 -999
2008-11-07 07:43 51°13.623 2°56.05 -999 -999 -999 -999 -999
2008-11-07 07:44 51°13.623 2°56.048 -999 -999 -999 -999 -999
2008-11-07 07:45 51°13.624 2°56.048 -999 -999 -999 -999 -999
2008-11-07 07:46 51°13.621 2°56.048 -999 -999 -999 -999 -999
2008-11-07 07:47 51°13.636 2°55.984 -999 -999 -999 -999 -999
2008-11-07 07:48 51°13.665 2°55.868 -999 -999 -999 -999 -999
2008-11-07 07:49 51°13.688 2°55.764 -999 -999 -999 -999 -999
2008-11-07 07:50 51°13.692 2°55.719 -999 -999 -999 -999 -999
2008-11-07 07:51 51°13.747 2°55.708 -999 -999 -999 -999 -999
2008-11-07 07:52 51°13.851 2°55.62 -999 -999 -999 -999 -999
2008-11-07 07:53 51°13.968 2°55.534 -999 -999 -999 -999 -999
2008-11-07 07:54 51°14.052 2°55.469 -999 -999 -999 -999 -999
2008-11-07 07:55 51°14.128 2°55.406 -999 -999 -999 -999 -999
2008-11-07 07:56 51°14.239 2°55.277 -999 -999 -999 -999 -999
2008-11-07 07:57 51°14.361 2°55.052 -999 -999 -999 -999 -999
2008-11-07 07:58 51°14.471 2°54.783 -999 -999 -999 -999 -999
2008-11-07 07:59 51°14.568 2°54.505 -999 -999 -999 -999 -999
2008-11-07 08:00 51°14.667 2°54.229 -999 -999 -999 -999 -999
2008-11-07 08:01 51°14.766 2°53.952 -999 -999 -999 -999 -999
2008-11-07 08:02 51°14.862 2°53.67 -999 -999 -999 -999 -999
2008-11-07 08:03 51°14.959 2°53.385 -999 -999 -999 -999 -999
2008-11-07 08:04 51°15.057 2°53.102 -999 -999 -999 -999 -999
2008-11-07 08:05 51°15.155 2°52.821 -999 -999 -999 -999 -999
2008-11-07 08:06 51°15.249 2°52.538 -999 -999 -999 -999 -999
2008-11-07 08:07 51°15.327 2°52.246 -999 -999 -999 -999 -999
2008-11-07 08:08 51°15.388 2°51.945 -999 -999 -999 -999 -999
2008-11-07 08:09 51°15.442 2°51.642 -999 -999 -999 -999 -999
2008-11-07 08:10 51°15.496 2°51.338 -999 -999 -999 -999 -999
2008-11-07 08:11 51°15.547 2°51.033 -999 -999 -999 -999 -999
2008-11-07 08:12 51°15.593 2°50.728 -999 -999 -999 -999 -999
2008-11-07 08:13 51°15.648 2°50.426 -999 -999 -999 -999 -999
2008-11-07 08:14 51°15.709 2°50.124 -999 -999 -999 -999 -999
2008-11-07 08:15 51°15.772 2°49.825 -999 -999 -999 -999 -999
2008-11-07 08:16 51°15.827 2°49.524 -999 -999 -999 -999 -999
2008-11-07 08:17 51°15.874 2°49.217 -999 -999 -999 -999 -999
2008-11-07 08:18 51°15.933 2°48.914 -999 -999 -999 -999 -999
2008-11-07 08:19 51°15.985 2°48.609 -999 -999 -999 -999 -999
2008-11-07 08:20 51°16.035 2°48.303 -999 -999 -999 -999 -999
2008-11-07 08:21 51°16.08 2°47.997 -999 -999 -999 -999 -999
2008-11-07 08:22 51°16.113 2°47.689 -999 -999 -999 -999 -999
2008-11-07 08:23 51°16.154 2°47.383 -999 -999 -999 -999 -999
2008-11-07 08:24 51°16.19 2°47.076 -999 -999 -999 -999 -999
2008-11-07 08:25 51°16.228 2°46.771 -999 -999 -999 -999 -999
2008-11-07 08:26 51°16.271 2°46.466 -999 -999 -999 -999 -999
2008-11-07 08:27 51°16.325 2°46.164 -999 -999 -999 -999 -999
2008-11-07 08:28 51°16.401 2°45.867 -999 -999 -999 -999 -999
2008-11-07 08:29 51°16.503 2°45.587 -999 -999 -999 -999 -999
2008-11-07 08:30 51°16.642 2°45.342 -999 -999 -999 -999 -999
2008-11-07 08:31 51°16.799 2°45.121 -999 -999 -999 -999 -999
2008-11-07 08:32 51°16.955 2°44.899 -999 -999 -999 -999 -999
2008-11-07 08:33 51°17.119 2°44.69 -999 -999 -999 -999 -999
2008-11-07 08:34 51°17.285 2°44.486 -999 -999 -999 -999 -999
2008-11-07 08:35 51°17.45 2°44.281 -999 -999 -999 -999 -999
2008-11-07 08:36 51°17.613 2°44.074 -999 -999 -999 -999 -999
2008-11-07 08:37 51°17.775 2°43.865 -999 -999 -999 -999 -999
2008-11-07 08:38 51°17.934 2°43.657 -999 -999 -999 -999 -999
2008-11-07 08:39 51°18.094 2°43.45 -999 -999 -999 -999 -999
2008-11-07 08:40 51°18.259 2°43.244 -999 -999 -999 -999 -999
2008-11-07 08:41 51°18.412 2°43.015 -999 -999 -999 -999 -999
2008-11-07 08:42 51°18.546 2°42.762 -999 -999 -999 -999 -999
2008-11-07 08:43 51°18.636 2°42.473 -999 -999 -999 -999 -999
2008-11-07 08:44 51°18.708 2°42.171 -999 -999 -999 -999 -999
2008-11-07 08:45 51°18.787 2°41.873 -999 -999 -999 -999 -999
2008-11-07 08:46 51°18.87 2°41.579 -999 -999 -999 -999 -999
2008-11-07 08:47 51°18.954 2°41.286 -999 -999 -999 -999 -999
2008-11-07 08:48 51°19.04 2°40.993 -999 -999 -999 -999 -999
2008-11-07 08:49 51°19.123 2°40.7 -999 -999 -999 -999 -999
2008-11-07 08:50 51°19.208 2°40.409 -999 -999 -999 -999 -999
2008-11-07 08:51 51°19.293 2°40.116 -999 -999 -999 -999 -999
2008-11-07 08:52 51°19.375 2°39.818 -999 -999 -999 -999 -999
2008-11-07 08:53 51°19.457 2°39.519 -999 -999 -999 -999 -999
2008-11-07 08:54 51°19.536 2°39.221 -999 -999 -999 -999 -999
2008-11-07 08:55 51°19.606 2°38.919 -999 -999 -999 -999 -999
2008-11-07 08:56 51°19.675 2°38.614 -999 -999 -999 -999 -999
2008-11-07 08:57 51°19.74 2°38.308 -999 -999 -999 -999 -999
2008-11-07 08:58 51°19.784 2°37.996 -999 -999 -999 -999 -999
2008-11-07 08:59 51°19.825 2°37.696 -999 -999 -999 -999 -999
2008-11-07 09:00 51°19.86 2°37.443 -999 -999 -999 -999 -999
2008-11-07 09:01 51°19.886 2°37.302 -999 -999 -999 -999 -999
2008-11-07 09:02 51°19.907 2°37.204 -999 -999 -999 -999 -999
2008-11-07 09:03 51°19.932 2°37.098 -999 -999 -999 -999 -999
2008-11-07 09:04 51°19.965 2°37.012 -999 -999 -999 -999 -999
2008-11-07 09:05 51°19.988 2°36.969 -999 -999 -999 -999 -999
2008-11-07 09:06 51°20.008 2°36.947 -999 -999 -999 -999 -999
2008-11-07 09:07 51°20.028 2°36.932 -999 -999 -999 -999 -999
2008-11-07 09:08 51°20.047 2°36.922 -999 -999 -999 -999 -999
2008-11-07 09:09 51°20.067 2°36.914 -999 -999 -999 -999 -999
2008-11-07 09:10 51°20.086 2°36.905 -999 -999 -999 -999 -999
2008-11-07 09:11 51°20.105 2°36.899 -999 -999 -999 -999 -999
2008-11-07 09:12 51°20.125 2°36.895 -999 -999 -999 -999 -999
2008-11-07 09:13 51°20.146 2°36.894 -999 -999 -999 -999 -999
2008-11-07 09:14 51°20.169 2°36.889 -999 -999 -999 -999 -999
2008-11-07 09:15 51°20.227 2°36.844 -999 -999 -999 -999 -999
2008-11-07 09:16 51°20.281 2°36.952 -999 -999 -999 -999 -999
2008-11-07 09:17 51°20.22 2°37.025 -999 -999 -999 -999 -999
2008-11-07 09:18 51°20.115 2°37.038 -999 -999 -999 -999 -999
2008-11-07 09:19 51°20.003 2°37.069 -999 -999 -999 -999 -999
2008-11-07 09:20 51°19.952 2°37.025 -999 -999 -999 -999 -999
2008-11-07 09:21 51°19.951 2°36.965 -999 -999 -999 -999 -999
2008-11-07 09:22 51°19.962 2°36.924 -999 -999 -999 -999 -999
2008-11-07 09:23 51°19.981 2°36.912 -999 -999 -999 -999 -999
2008-11-07 09:24 51°20.003 2°36.91 -999 -999 -999 -999 -999
2008-11-07 09:25 51°20.027 2°36.911 -999 -999 -999 -999 -999
2008-11-07 09:26 51°20.051 2°36.908 -999 -999 -999 -999 -999
2008-11-07 09:27 51°20.074 2°36.903 -999 -999 -999 -999 -999
2008-11-07 09:28 51°20.094 2°36.898 -999 -999 -999 -999 -999
2008-11-07 09:29 51°20.115 2°36.897 -999 -999 -999 -999 -999
2008-11-07 09:30 51°20.138 2°36.899 -999 -999 -999 -999 -999
2008-11-07 09:31 51°20.16 2°36.903 -999 -999 -999 -999 -999
2008-11-07 09:32 51°20.182 2°36.91 -999 -999 -999 -999 -999
2008-11-07 09:33 51°20.206 2°36.92 -999 -999 -999 -999 -999
2008-11-07 09:34 51°20.229 2°36.933 -999 -999 -999 -999 -999
2008-11-07 09:35 51°20.253 2°36.947 -999 -999 -999 -999 -999
2008-11-07 09:36 51°20.275 2°36.961 -999 -999 -999 -999 -999
2008-11-07 09:37 51°20.298 2°36.966 -999 -999 -999 -999 -999
2008-11-07 09:38 51°20.298 2°36.919 -999 -999 -999 -999 -999
2008-11-07 09:39 51°20.25 2°36.917 -999 -999 -999 -999 -999
2008-11-07 09:40 51°20.21 2°36.944 -999 -999 -999 -999 -999
2008-11-07 09:41 51°20.187 2°36.96 -999 -999 -999 -999 -999
2008-11-07 09:42 51°20.167 2°36.957 -999 -999 -999 -999 -999
2008-11-07 09:43 51°20.157 2°36.928 -999 -999 -999 -999 -999
2008-11-07 09:44 51°20.164 2°36.909 -999 -999 -999 -999 -999
2008-11-07 09:45 51°20.181 2°36.899 -999 -999 -999 -999 -999
2008-11-07 09:46 51°20.203 2°36.896 -999 -999 -999 -999 -999
2008-11-07 09:47 51°20.226 2°36.901 -999 -999 -999 -999 -999
2008-11-07 09:48 51°20.248 2°36.91 -999 -999 -999 -999 -999
2008-11-07 09:49 51°20.269 2°36.919 -999 -999 -999 -999 -999
2008-11-07 09:50 51°20.291 2°36.926 -999 -999 -999 -999 -999
2008-11-07 09:51 51°20.315 2°36.933 -999 -999 -999 -999 -999
2008-11-07 09:52 51°20.338 2°36.94 -999 -999 -999 -999 -999
2008-11-07 09:53 51°20.347 2°36.9 -999 -999 -999 -999 -999
2008-11-07 09:54 51°20.31 2°36.876 -999 -999 -999 -999 -999
2008-11-07 09:55 51°20.237 2°36.917 -999 -999 -999 -999 -999
2008-11-07 09:56 51°20.207 2°36.956 -999 -999 -999 -999 -999
2008-11-07 09:57 51°20.212 2°36.967 -999 -999 -999 -999 -999
2008-11-07 09:58 51°20.226 2°36.973 -999 -999 -999 -999 -999
2008-11-07 09:59 51°20.251 2°36.979 -999 -999 -999 -999 -999
2008-11-07 10:00 51°20.283 2°36.988 -999 -999 -999 -999 -999
2008-11-07 10:01 51°20.312 2°37.005 -999 -999 -999 -999 -999
2008-11-07 10:02 51°20.334 2°37.022 -999 -999 -999 -999 -999
2008-11-07 10:03 51°20.356 2°37.034 -999 -999 -999 -999 -999
2008-11-07 10:04 51°20.379 2°37.042 -999 -999 -999 -999 -999
2008-11-07 10:05 51°20.401 2°37.048 -999 -999 -999 -999 -999
2008-11-07 10:06 51°20.423 2°37.053 -999 -999 -999 -999 -999
2008-11-07 10:07 51°20.446 2°37.059 -999 -999 -999 -999 -999
2008-11-07 10:08 51°20.469 2°37.063 -999 -999 -999 -999 -999
2008-11-07 10:09 51°20.468 2°37.003 -999 -999 -999 -999 -999
2008-11-07 10:10 51°20.376 2°36.982 -999 -999 -999 -999 -999
2008-11-07 10:11 51°20.276 2°36.999 -999 -999 -999 -999 -999
2008-11-07 10:12 51°20.206 2°36.987 -999 -999 -999 -999 -999
2008-11-07 10:13 51°20.181 2°36.979 -999 -999 -999 -999 -999
2008-11-07 10:14 51°20.19 2°36.964 -999 -999 -999 -999 -999
2008-11-07 10:15 51°20.208 2°36.953 -999 -999 -999 -999 -999
2008-11-07 10:16 51°20.228 2°36.947 -999 -999 -999 -999 -999
2008-11-07 10:17 51°20.249 2°36.942 -999 -999 -999 -999 -999
2008-11-07 10:18 51°20.268 2°36.939 -999 -999 -999 -999 -999
2008-11-07 10:19 51°20.287 2°36.936 -999 -999 -999 -999 -999
2008-11-07 10:20 51°20.307 2°36.937 -999 -999 -999 -999 -999
2008-11-07 10:21 51°20.328 2°36.939 -999 -999 -999 -999 -999
2008-11-07 10:22 51°20.35 2°36.941 -999 -999 -999 -999 -999
2008-11-07 10:23 51°20.372 2°36.946 -999 -999 -999 -999 -999
2008-11-07 10:24 51°20.394 2°36.949 -999 -999 -999 -999 -999
2008-11-07 10:25 51°20.415 2°36.95 -999 -999 -999 -999 -999
2008-11-07 10:26 51°20.437 2°36.952 -999 -999 -999 -999 -999
2008-11-07 10:27 51°20.458 2°36.953 -999 -999 -999 -999 -999
2008-11-07 10:28 51°20.479 2°36.956 -999 -999 -999 -999 -999
2008-11-07 10:29 51°20.501 2°36.961 -999 -999 -999 -999 -999
2008-11-07 10:30 51°20.523 2°36.965 -999 -999 -999 -999 -999
2008-11-07 10:31 51°20.544 2°36.968 -999 -999 -999 -999 -999
2008-11-07 10:32 51°20.565 2°36.971 -999 -999 -999 -999 -999
2008-11-07 10:33 51°20.586 2°36.974 -999 -999 -999 -999 -999
2008-11-07 10:34 51°20.609 2°36.978 -999 -999 -999 -999 -999
2008-11-07 10:35 51°20.63 2°36.981 -999 -999 -999 -999 -999
2008-11-07 10:36 51°20.651 2°36.984 -999 -999 -999 -999 -999
2008-11-07 10:37 51°20.672 2°36.987 -999 -999 -999 -999 -999
2008-11-07 10:38 51°20.695 2°36.986 -999 -999 -999 -999 -999
2008-11-07 10:39 51°20.693 2°36.932 -999 -999 -999 -999 -999
2008-11-07 10:40 51°20.629 2°36.914 -999 -999 -999 -999 -999
2008-11-07 10:41 51°20.511 2°36.943 -999 -999 -999 -999 -999
2008-11-07 10:42 51°20.383 2°36.942 -999 -999 -999 -999 -999
2008-11-07 10:43 51°20.286 2°36.916 -999 -999 -999 -999 -999
2008-11-07 10:44 51°20.269 2°36.866 -999 -999 -999 -999 -999
2008-11-07 10:45 51°20.27 2°36.815 -999 -999 -999 -999 -999
2008-11-07 10:46 51°20.28 2°36.771 -999 -999 -999 -999 -999
2008-11-07 10:47 51°20.293 2°36.742 -999 -999 -999 -999 -999
2008-11-07 10:48 51°20.308 2°36.725 -999 -999 -999 -999 -999
2008-11-07 10:49 51°20.326 2°36.716 -999 -999 -999 -999 -999
2008-11-07 10:50 51°20.346 2°36.714 -999 -999 -999 -999 -999
2008-11-07 10:51 51°20.367 2°36.717 -999 -999 -999 -999 -999
2008-11-07 10:52 51°20.386 2°36.724 -999 -999 -999 -999 -999
2008-11-07 10:53 51°20.404 2°36.729 -999 -999 -999 -999 -999
2008-11-07 10:54 51°20.424 2°36.736 -999 -999 -999 -999 -999
2008-11-07 10:55 51°20.443 2°36.742 -999 -999 -999 -999 -999
2008-11-07 10:56 51°20.463 2°36.748 -999 -999 -999 -999 -999
2008-11-07 10:57 51°20.482 2°36.752 -999 -999 -999 -999 -999
2008-11-07 10:58 51°20.503 2°36.756 -999 -999 -999 -999 -999
2008-11-07 10:59 51°20.524 2°36.761 -999 -999 -999 -999 -999
2008-11-07 11:00 51°20.545 2°36.765 -999 -999 -999 -999 -999
2008-11-07 11:01 51°20.549 2°36.713 -999 -999 -999 -999 -999
2008-11-07 11:02 51°20.514 2°36.688 -999 -999 -999 -999 -999
2008-11-07 11:03 51°20.496 2°36.769 -999 -999 -999 -999 -999
2008-11-07 11:04 51°20.465 2°36.888 -999 -999 -999 -999 -999
2008-11-07 11:05 51°20.412 2°37.059 -999 -999 -999 -999 -999
2008-11-07 11:06 51°20.346 2°37.268 -999 -999 -999 -999 -999
2008-11-07 11:07 51°20.246 2°37.468 -999 -999 -999 -999 -999
2008-11-07 11:08 51°20.13 2°37.666 -999 -999 -999 -999 -999
2008-11-07 11:09 51°20.012 2°37.865 -999 -999 -999 -999 -999
2008-11-07 11:10 51°19.896 2°38.068 -999 -999 -999 -999 -999
2008-11-07 11:11 51°19.782 2°38.273 -999 -999 -999 -999 -999
2008-11-07 11:12 51°19.668 2°38.48 -999 -999 -999 -999 -999
2008-11-07 11:13 51°19.555 2°38.689 -999 -999 -999 -999 -999
2008-11-07 11:14 51°19.448 2°38.902 -999 -999 -999 -999 -999
2008-11-07 11:15 51°19.34 2°39.111 -999 -999 -999 -999 -999
2008-11-07 11:16 51°19.229 2°39.317 -999 -999 -999 -999 -999
2008-11-07 11:17 51°19.116 2°39.525 -999 -999 -999 -999 -999
2008-11-07 11:18 51°19.004 2°39.733 -999 -999 -999 -999 -999
2008-11-07 11:19 51°18.89 2°39.937 -999 -999 -999 -999 -999
2008-11-07 11:20 51°18.777 2°40.146 -999 -999 -999 -999 -999
2008-11-07 11:21 51°18.665 2°40.357 -999 -999 -999 -999 -999
2008-11-07 11:22 51°18.552 2°40.56 -999 -999 -999 -999 -999
2008-11-07 11:23 51°18.436 2°40.762 -999 -999 -999 -999 -999
2008-11-07 11:24 51°18.325 2°40.97 -999 -999 -999 -999 -999
2008-11-07 11:25 51°18.214 2°41.18 -999 -999 -999 -999 -999
2008-11-07 11:26 51°18.103 2°41.391 -999 -999 -999 -999 -999
2008-11-07 11:27 51°17.989 2°41.61 -999 -999 -999 -999 -999
2008-11-07 11:28 51°17.868 2°41.844 -999 -999 -999 -999 -999
2008-11-07 11:29 51°17.757 2°42.096 -999 -999 -999 -999 -999
2008-11-07 11:30 51°17.651 2°42.356 -999 -999 -999 -999 -999
2008-11-07 11:31 51°17.547 2°42.616 -999 -999 -999 -999 -999
2008-11-07 11:32 51°17.442 2°42.876 -999 -999 -999 -999 -999
2008-11-07 11:33 51°17.338 2°43.129 -999 -999 -999 -999 -999
2008-11-07 11:34 51°17.233 2°43.385 -999 -999 -999 -999 -999
2008-11-07 11:35 51°17.123 2°43.641 -999 -999 -999 -999 -999
2008-11-07 11:36 51°17.016 2°43.898 -999 -999 -999 -999 -999
2008-11-07 11:37 51°16.908 2°44.156 -999 -999 -999 -999 -999
2008-11-07 11:38 51°16.799 2°44.415 -999 -999 -999 -999 -999
2008-11-07 11:39 51°16.693 2°44.676 -999 -999 -999 -999 -999
2008-11-07 11:40 51°16.587 2°44.936 -999 -999 -999 -999 -999
2008-11-07 11:41 51°16.508 2°45.22 -999 -999 -999 -999 -999
2008-11-07 11:42 51°16.434 2°45.508 -999 -999 -999 -999 -999
2008-11-07 11:43 51°16.357 2°45.793 -999 -999 -999 -999 -999
2008-11-07 11:44 51°16.277 2°46.074 -999 -999 -999 -999 -999
2008-11-07 11:45 51°16.199 2°46.359 -999 -999 -999 -999 -999
2008-11-07 11:46 51°16.119 2°46.645 -999 -999 -999 -999 -999
2008-11-07 11:47 51°16.035 2°46.929 -999 -999 -999 -999 -999
2008-11-07 11:48 51°15.954 2°47.214 -999 -999 -999 -999 -999
2008-11-07 11:49 51°15.873 2°47.498 -999 -999 -999 -999 -999
2008-11-07 11:50 51°15.808 2°47.79 -999 -999 -999 -999 -999
2008-11-07 11:51 51°15.746 2°48.083 -999 -999 -999 -999 -999
2008-11-07 11:52 51°15.683 2°48.375 -999 -999 -999 -999 -999
2008-11-07 11:53 51°15.616 2°48.667 -999 -999 -999 -999 -999
2008-11-07 11:54 51°15.552 2°48.961 -999 -999 -999 -999 -999
2008-11-07 11:55 51°15.483 2°49.254 -999 -999 -999 -999 -999
2008-11-07 11:56 51°15.42 2°49.548 -999 -999 -999 -999 -999
2008-11-07 11:57 51°15.358 2°49.841 -999 -999 -999 -999 -999
2008-11-07 11:58 51°15.295 2°50.138 -999 -999 -999 -999 -999
2008-11-07 11:59 51°15.24 2°50.436 -999 -999 -999 -999 -999
2008-11-07 12:00 51°15.184 2°50.733 -999 -999 -999 -999 -999
2008-11-07 12:01 51°15.119 2°51.027 -999 -999 -999 -999 -999
2008-11-07 12:02 51°15.06 2°51.324 -999 -999 -999 -999 -999
2008-11-07 12:03 51°15.004 2°51.62 -999 -999 -999 -999 -999
2008-11-07 12:04 51°14.943 2°51.912 -999 -999 -999 -999 -999
2008-11-07 12:05 51°14.895 2°52.208 -999 -999 -999 -999 -999
2008-11-07 12:06 51°14.854 2°52.506 -999 -999 -999 -999 -999
2008-11-07 12:07 51°14.805 2°52.803 -999 -999 -999 -999 -999
2008-11-07 12:08 51°14.762 2°53.102 -999 -999 -999 -999 -999
2008-11-07 12:09 51°14.718 2°53.403 -999 -999 -999 -999 -999
2008-11-07 12:10 51°14.675 2°53.705 -999 -999 -999 -999 -999
2008-11-07 12:11 51°14.633 2°54.007 -999 -999 -999 -999 -999
2008-11-07 12:12 51°14.585 2°54.306 -999 -999 -999 -999 -999
2008-11-07 12:13 51°14.521 2°54.595 -999 -999 -999 -999 -999
2008-11-07 12:14 51°14.435 2°54.871 -999 -999 -999 -999 -999
2008-11-07 12:15 51°14.33 2°55.133 -999 -999 -999 -999 -999
2008-11-07 12:16 51°14.202 2°55.34 -999 -999 -999 -999 -999
2008-11-07 12:17 51°14.111 2°55.42 -999 -999 -999 -999 -999
2008-11-07 12:18 51°14.034 2°55.481 -999 -999 -999 -999 -999
2008-11-07 12:19 51°13.94 2°55.55 -999 -999 -999 -999 -999
2008-11-07 12:20 51°13.83 2°55.631 -999 -999 -999 -999 -999
2008-11-07 12:21 51°13.743 2°55.727 -999 -999 -999 -999 -999
2008-11-07 12:22 51°13.678 2°55.845 -999 -999 -999 -999 -999
2008-11-07 12:23 51°13.64 2°55.943 -999 -999 -999 -999 -999
2008-11-07 12:24 51°13.626 2°56.027 -999 -999 -999 -999 -999
2008-11-07 12:25 51°13.623 2°56.045 -999 -999 -999 -999 -999
2008-11-07 12:26 51°13.623 2°56.047 -999 -999 -999 -999 -999
2008-11-07 12:27 51°13.623 2°56.047 -999 -999 -999 -999 -999